Time;durP1;ratioP1;P1;durP2;ratioP2;P2;SDS_P1;SDS_P2;PMS_P1;PMS_P2;Temp;Humidity;BMP_temperature;BMP_pressure;BME280_temperature;BME280_humidity;BME280_pressure;Samples;Min_cycle;Max_cycle;Signal;HPM_P1;HPM_P2
2022/06/14 00:03:06;;;;;;;1.00;1.00;;;;;;;;;;5042622;28;20199;-65
2022/06/14 00:05:35;;;;;;;0.65;0.65;;;;;;;;;;5040538;28;20216;-65
2022/06/14 00:08:02;;;;;;;1.75;1.40;;;;;;;;;;5047824;28;20208;-65
2022/06/14 00:10:29;;;;;;;1.10;1.10;;;;;;;;;;5040724;28;20270;-65
2022/06/14 00:12:56;;;;;;;1.20;1.20;;;;;;;;;;5045634;28;20230;-65
2022/06/14 00:15:23;;;;;;;1.80;1.10;;;;;;;;;;5047161;28;20208;-66
2022/06/14 00:17:51;;;;;;;2.33;1.35;;;;;;;;;;5046744;28;20254;-66
2022/06/14 00:20:18;;;;;;;1.77;1.27;;;;;;;;;;5045648;28;20204;-67
2022/06/14 00:22:46;;;;;;;1.30;1.20;;;;;;;;;;5047532;28;20254;-66
2022/06/14 00:25:22;;;;;;;1.30;1.20;;;;;;;;;;5048830;28;20224;-66
2022/06/14 00:27:49;;;;;;;1.50;1.30;;;;;;;;;;5046594;28;20269;-66
2022/06/14 00:30:16;;;;;;;1.17;1.17;;;;;;;;;;5047135;28;20661;-67
2022/06/14 00:32:43;;;;;;;1.43;1.43;;;;;;;;;;5045850;28;20277;-64
2022/06/14 00:35:10;;;;;;;1.23;1.23;;;;;;;;;;5050523;28;20206;-64
2022/06/14 00:37:37;;;;;;;1.40;1.40;;;;;;;;;;5046865;28;20233;-65
2022/06/14 00:40:07;;;;;;;2.30;1.20;;;;;;;;;;5049176;28;20222;-65
2022/06/14 00:42:34;;;;;;;1.10;1.10;;;;;;;;;;5050097;28;20212;-65
2022/06/14 00:45:03;;;;;;;1.20;1.20;;;;;;;;;;5050181;28;20223;-64
2022/06/14 00:47:30;;;;;;;1.17;1.10;;;;;;;;;;5050262;28;20749;-65
2022/06/14 00:49:59;;;;;;;1.10;1.10;;;;;;;;;;5050451;28;20208;-65
2022/06/14 00:52:29;;;;;;;1.47;1.27;;;;;;;;;;5040097;28;20207;-65
2022/06/14 00:54:58;;;;;;;1.97;1.20;;;;;;;;;;5045102;28;20226;-65
2022/06/14 00:57:28;;;;;;;1.10;1.10;;;;;;;;;;5049702;28;20219;-65
2022/06/14 00:59:57;;;;;;;1.13;1.10;;;;;;;;;;5050679;28;20196;-65
2022/06/14 01:02:26;;;;;;;1.35;1.25;;;;;;;;;;5045773;28;20207;-64
2022/06/14 01:04:54;;;;;;;1.27;1.27;;;;;;;;;;5042338;28;20227;-65
2022/06/14 01:07:26;;;;;;;1.30;1.30;;;;;;;;;;5047589;28;20210;-65
2022/06/14 01:09:55;;;;;;;1.20;1.20;;;;;;;;;;5048687;28;20196;-65
2022/06/14 01:12:24;;;;;;;1.38;1.38;;;;;;;;;;5049567;28;20215;-65
2022/06/14 01:14:55;;;;;;;3.07;1.30;;;;;;;;;;5048630;28;20409;-65
2022/06/14 01:17:22;;;;;;;1.20;1.20;;;;;;;;;;5048182;28;20534;-65
2022/06/14 01:19:50;;;;;;;1.60;1.13;;;;;;;;;;5048958;28;20206;-65
2022/06/14 01:22:28;;;;;;;1.40;1.23;;;;;;;;;;5048567;28;20239;-65
2022/06/14 01:24:55;;;;;;;1.93;1.43;;;;;;;;;;5047958;28;20223;-65
2022/06/14 01:27:24;;;;;;;1.23;1.23;;;;;;;;;;5047407;28;20666;-65
2022/06/14 01:29:56;;;;;;;1.40;1.40;;;;;;;;;;5048717;28;20203;-65
2022/06/14 01:32:25;;;;;;;1.50;1.50;;;;;;;;;;5046461;28;20678;-65
2022/06/14 01:34:54;;;;;;;1.63;1.63;;;;;;;;;;5049704;28;20670;-65
2022/06/14 01:37:22;;;;;;;1.30;1.30;;;;;;;;;;5050136;28;20330;-65
2022/06/14 01:39:50;;;;;;;2.70;1.40;;;;;;;;;;5048933;28;20211;-65
2022/06/14 01:42:23;;;;;;;1.60;1.50;;;;;;;;;;5047961;28;20627;-66
2022/06/14 01:44:54;;;;;;;2.30;1.67;;;;;;;;;;5046721;28;20211;-64
2022/06/14 01:47:26;;;;;;;2.00;1.70;;;;;;;;;;5044468;28;20270;-65
2022/06/14 01:52:53;;;;;;;1.23;1.23;;;;;;;;;;5046419;28;20218;-65
2022/06/14 01:55:24;;;;;;;2.63;1.60;;;;;;;;;;5047421;28;20246;-65
2022/06/14 01:57:56;;;;;;;1.47;1.47;;;;;;;;;;5048101;28;20200;-66
2022/06/14 02:00:26;;;;;;;1.90;1.60;;;;;;;;;;5047392;28;20204;-65
2022/06/14 02:04:36;;;;;;;1.57;1.53;;;;;;;;;;5045851;28;20204;-65
2022/06/14 02:05:46;;;;;;;1.43;1.43;;;;;;;;;;5046490;28;20233;-64
2022/06/14 02:08:14;;;;;;;1.40;1.40;;;;;;;;;;5047638;28;20211;-64
2022/06/14 02:10:46;;;;;;;1.80;1.70;;;;;;;;;;5045585;28;20234;-65
2022/06/14 02:13:15;;;;;;;2.30;1.70;;;;;;;;;;5044795;28;20257;-65
2022/06/14 02:15:43;;;;;;;2.00;1.80;;;;;;;;;;5047434;28;20262;-65
2022/06/14 02:18:12;;;;;;;1.70;1.60;;;;;;;;;;5047541;28;20211;-65
2022/06/14 02:20:42;;;;;;;1.40;1.40;;;;;;;;;;5047200;28;20628;-65
2022/06/14 02:23:10;;;;;;;1.20;1.20;;;;;;;;;;5037886;28;20216;-69
2022/06/14 02:25:39;;;;;;;1.87;1.83;;;;;;;;;;5045007;28;20231;-65
2022/06/14 02:28:15;;;;;;;1.60;1.50;;;;;;;;;;5043901;28;20204;-65
2022/06/14 02:30:45;;;;;;;5.37;1.73;;;;;;;;;;5043306;28;20208;-65
2022/06/14 02:33:15;;;;;;;5.40;1.90;;;;;;;;;;5046172;28;20711;-65
2022/06/14 02:35:46;;;;;;;3.37;1.70;;;;;;;;;;5045255;28;20736;-65
2022/06/14 02:38:15;;;;;;;1.43;1.43;;;;;;;;;;5046332;28;20979;-65
2022/06/14 02:40:44;;;;;;;1.57;1.57;;;;;;;;;;5046133;28;20674;-64
2022/06/14 02:43:16;;;;;;;2.37;1.67;;;;;;;;;;5046134;28;20253;-65
2022/06/14 02:45:45;;;;;;;1.63;1.50;;;;;;;;;;5046702;28;20228;-65
2022/06/14 02:48:15;;;;;;;1.70;1.57;;;;;;;;;;5048182;28;20207;-65
2022/06/14 02:50:44;;;;;;;1.83;1.73;;;;;;;;;;5048696;28;20211;-65
2022/06/14 02:53:14;;;;;;;1.90;1.50;;;;;;;;;;5043875;28;20215;-64
2022/06/14 02:55:44;;;;;;;1.50;1.50;;;;;;;;;;5046566;28;20228;-65
2022/06/14 02:58:13;;;;;;;1.60;1.50;;;;;;;;;;5042685;28;20292;-65
2022/06/14 03:00:42;;;;;;;1.60;1.50;;;;;;;;;;5044720;28;20253;-64
2022/06/14 03:03:13;;;;;;;2.10;1.57;;;;;;;;;;5044197;28;20628;-64
2022/06/14 03:05:42;;;;;;;1.70;1.60;;;;;;;;;;5044884;28;20231;-64
2022/06/14 03:08:12;;;;;;;1.53;1.53;;;;;;;;;;5044507;28;20206;-64
2022/06/14 03:10:41;;;;;;;1.50;1.50;;;;;;;;;;5046163;28;20624;-64
2022/06/14 03:13:12;;;;;;;1.93;1.70;;;;;;;;;;5047032;28;20568;-64
2022/06/14 03:15:42;;;;;;;1.33;1.27;;;;;;;;;;5045935;28;20240;-67
2022/06/14 03:18:20;;;;;;;1.60;1.50;;;;;;;;;;5047300;28;20282;-64
2022/06/14 03:20:52;;;;;;;1.57;1.40;;;;;;;;;;5045661;28;20212;-66
2022/06/14 03:23:23;;;;;;;1.67;1.47;;;;;;;;;;5046382;28;20219;-64
2022/06/14 03:25:52;;;;;;;3.47;1.70;;;;;;;;;;5046309;28;20230;-64
2022/06/14 03:28:22;;;;;;;1.50;1.50;;;;;;;;;;5046649;28;20335;-64
2022/06/14 03:30:53;;;;;;;2.10;1.90;;;;;;;;;;5045260;28;20211;-64
2022/06/14 03:33:25;;;;;;;1.87;1.77;;;;;;;;;;5046424;28;20245;-64
2022/06/14 03:35:53;;;;;;;1.70;1.70;;;;;;;;;;5043644;28;20196;-64
2022/06/14 03:38:24;;;;;;;3.33;1.83;;;;;;;;;;5047362;28;20218;-64
2022/06/14 03:40:52;;;;;;;7.10;1.80;;;;;;;;;;5044791;28;20674;-65
2022/06/14 03:43:19;;;;;;;1.97;1.67;;;;;;;;;;5045842;28;20238;-64
2022/06/14 03:45:52;;;;;;;1.70;1.70;;;;;;;;;;5046858;28;20223;-64
2022/06/14 03:48:19;;;;;;;1.87;1.77;;;;;;;;;;5048468;28;20210;-65
2022/06/14 03:50:54;;;;;;;1.50;1.50;;;;;;;;;;5048817;28;20204;-64
2022/06/14 03:53:28;;;;;;;1.90;1.80;;;;;;;;;;5046907;28;20712;-64
2022/06/14 03:56:03;;;;;;;1.33;1.33;;;;;;;;;;5047558;28;20223;-64
2022/06/14 03:58:37;;;;;;;1.63;1.60;;;;;;;;;;5048248;28;20300;-65
2022/06/14 04:01:09;;;;;;;2.00;1.90;;;;;;;;;;5048824;28;20203;-65
2022/06/14 04:03:42;;;;;;;2.53;1.60;;;;;;;;;;5048751;28;20627;-65
2022/06/14 04:06:17;;;;;;;1.47;1.47;;;;;;;;;;5047879;28;20223;-64
2022/06/14 04:08:49;;;;;;;1.50;1.40;;;;;;;;;;5047998;28;20230;-65
2022/06/14 04:11:19;;;;;;;2.17;1.27;;;;;;;;;;5048352;28;20699;-64
2022/06/14 04:13:48;;;;;;;1.93;1.83;;;;;;;;;;5048098;28;20203;-65
2022/06/14 04:16:18;;;;;;;1.50;1.50;;;;;;;;;;5049135;28;20195;-65
2022/06/14 04:18:47;;;;;;;1.77;1.67;;;;;;;;;;5047829;28;20222;-64
2022/06/14 04:21:23;;;;;;;1.70;1.60;;;;;;;;;;5048641;28;20212;-65
2022/06/14 04:23:56;;;;;;;1.60;1.53;;;;;;;;;;5049638;28;21023;-64
2022/06/14 04:26:27;;;;;;;1.93;1.90;;;;;;;;;;5047457;28;20227;-65
2022/06/14 04:28:58;;;;;;;1.60;1.60;;;;;;;;;;5048299;28;20204;-65
2022/06/14 04:31:28;;;;;;;1.50;1.50;;;;;;;;;;5049857;28;20570;-64
2022/06/14 04:33:58;;;;;;;1.93;1.70;;;;;;;;;;5046810;28;20290;-65
2022/06/14 04:36:29;;;;;;;1.40;1.40;;;;;;;;;;5048402;28;20605;-65
2022/06/14 04:38:58;;;;;;;1.60;1.60;;;;;;;;;;5046199;28;20861;-66
2022/06/14 04:41:27;;;;;;;2.13;1.53;;;;;;;;;;5047606;28;20694;-65
2022/06/14 04:43:58;;;;;;;5.83;1.37;;;;;;;;;;5048215;28;20254;-65
2022/06/14 04:46:28;;;;;;;2.10;1.43;;;;;;;;;;5048964;28;20215;-65
2022/06/14 04:48:57;;;;;;;1.70;1.63;;;;;;;;;;5049041;28;20203;-65
2022/06/14 04:51:26;;;;;;;1.37;1.30;;;;;;;;;;5047949;28;20211;-65
2022/06/14 04:54:01;;;;;;;1.58;1.48;;;;;;;;;;5049095;28;20709;-65
2022/06/14 04:56:31;;;;;;;1.45;1.40;;;;;;;;;;5047936;28;20916;-65
2022/06/14 04:59:02;;;;;;;1.65;1.65;;;;;;;;;;5047371;28;20206;-67
2022/06/14 05:01:31;;;;;;;1.73;1.63;;;;;;;;;;5044392;28;20212;-65
2022/06/14 05:04:00;;;;;;;1.33;1.33;;;;;;;;;;5049622;28;20322;-65
2022/06/14 05:06:29;;;;;;;1.65;1.48;;;;;;;;;;5050498;28;20289;-65
2022/06/14 05:09:00;;;;;;;2.60;1.58;;;;;;;;;;5050816;28;20207;-65
2022/06/14 05:11:32;;;;;;;1.40;1.40;;;;;;;;;;5047855;28;20214;-66
2022/06/14 05:14:01;;;;;;;2.50;1.48;;;;;;;;;;5050754;28;20215;-65
2022/06/14 05:16:32;;;;;;;1.52;1.40;;;;;;;;;;5048792;28;20207;-65
2022/06/14 05:19:04;;;;;;;2.30;1.50;;;;;;;;;;5050464;28;20212;-65
2022/06/14 05:21:34;;;;;;;4.03;1.70;;;;;;;;;;5045260;28;20216;-65
2022/06/14 05:24:02;;;;;;;1.30;1.30;;;;;;;;;;5049217;28;20216;-65
2022/06/14 05:26:38;;;;;;;1.35;1.25;;;;;;;;;;5048771;28;20293;-66
2022/06/14 05:29:11;;;;;;;1.60;1.50;;;;;;;;;;5048673;28;20274;-65
2022/06/14 05:31:42;;;;;;;2.30;1.95;;;;;;;;;;5048303;28;20685;-65
2022/06/14 05:34:14;;;;;;;1.40;1.40;;;;;;;;;;5049967;28;20226;-65
2022/06/14 05:36:44;;;;;;;1.90;1.80;;;;;;;;;;5039396;28;20608;-65
2022/06/14 05:39:16;;;;;;;1.90;1.80;;;;;;;;;;5028515;28;20675;-65
2022/06/14 05:41:45;;;;;;;2.20;2.10;;;;;;;;;;5047141;28;20208;-65
2022/06/14 05:44:15;;;;;;;1.73;1.60;;;;;;;;;;5048036;28;20199;-65
2022/06/14 05:46:43;;;;;;;1.80;1.70;;;;;;;;;;5040322;28;20228;-65
2022/06/14 05:49:14;;;;;;;1.70;1.60;;;;;;;;;;5030389;28;20212;-65
2022/06/14 05:51:45;;;;;;;1.60;1.50;;;;;;;;;;5046501;28;20258;-65
2022/06/14 05:54:18;;;;;;;3.05;1.75;;;;;;;;;;5043981;28;20228;-67
2022/06/14 05:56:48;;;;;;;1.27;1.20;;;;;;;;;;5048140;28;20675;-65
2022/06/14 05:59:19;;;;;;;1.70;1.60;;;;;;;;;;5047645;28;20230;-65
2022/06/14 06:01:49;;;;;;;2.33;1.70;;;;;;;;;;5049210;28;20210;-64
2022/06/14 06:04:19;;;;;;;1.60;1.50;;;;;;;;;;5046089;28;20200;-65
2022/06/14 06:06:48;;;;;;;2.80;1.35;;;;;;;;;;5049354;28;20231;-65
2022/06/14 06:09:18;;;;;;;1.88;1.70;;;;;;;;;;5049321;28;20219;-66
2022/06/14 06:11:48;;;;;;;1.83;1.73;;;;;;;;;;5045436;28;20356;-64
2022/06/14 06:14:17;;;;;;;2.13;1.40;;;;;;;;;;5048909;28;20211;-66
2022/06/14 06:16:48;;;;;;;1.55;1.45;;;;;;;;;;5047429;28;20243;-65
2022/06/14 06:19:17;;;;;;;1.23;1.23;;;;;;;;;;5048150;28;20743;-63
2022/06/14 06:21:50;;;;;;;1.33;1.33;;;;;;;;;;5048075;28;20901;-63
2022/06/14 06:24:20;;;;;;;2.33;1.33;;;;;;;;;;5049129;28;20212;-63
2022/06/14 06:26:50;;;;;;;1.55;1.45;;;;;;;;;;5048802;28;20238;-64
2022/06/14 06:29:19;;;;;;;1.85;1.40;;;;;;;;;;5039036;28;20590;-64
2022/06/14 06:31:47;;;;;;;1.83;1.33;;;;;;;;;;5042470;28;20433;-64
2022/06/14 06:34:15;;;;;;;1.35;1.30;;;;;;;;;;5038388;28;20915;-64
2022/06/14 06:36:46;;;;;;;1.20;1.10;;;;;;;;;;5049078;28;20230;-64
2022/06/14 06:39:22;;;;;;;1.58;1.30;;;;;;;;;;5048661;28;20249;-64
2022/06/14 06:41:54;;;;;;;1.15;1.08;;;;;;;;;;5040217;28;20258;-63
2022/06/14 06:44:24;;;;;;;1.17;1.08;;;;;;;;;;5040213;28;20207;-64
2022/06/14 06:46:54;;;;;;;1.15;1.13;;;;;;;;;;5048841;28;20228;-61
2022/06/14 06:49:23;;;;;;;2.78;1.10;;;;;;;;;;5048635;28;20210;-63
2022/06/14 06:51:53;;;;;;;1.23;1.10;;;;;;;;;;5049025;28;20258;-64
2022/06/14 06:54:22;;;;;;;1.02;0.95;;;;;;;;;;5046798;28;20644;-63
2022/06/14 06:56:52;;;;;;;2.70;1.10;;;;;;;;;;5048602;28;20239;-63
2022/06/14 06:59:25;;;;;;;0.90;0.90;;;;;;;;;;5044187;28;20268;-64
2022/06/14 07:01:54;;;;;;;2.60;1.05;;;;;;;;;;5047805;28;20223;-64
2022/06/14 07:05:03;;;;;;;2.72;1.00;;;;;;;;;;5046885;28;20253;-64
2022/06/14 07:07:12;;;;;;;1.15;1.00;;;;;;;;;;5035840;28;20616;-64
2022/06/14 07:09:43;;;;;;;0.98;0.98;;;;;;;;;;5048634;28;20207;-64
2022/06/14 07:12:14;;;;;;;0.98;0.98;;;;;;;;;;5046917;28;20219;-64
2022/06/14 07:14:47;;;;;;;0.77;0.77;;;;;;;;;;5046870;28;20226;-64
2022/06/14 07:17:17;;;;;;;2.55;0.98;;;;;;;;;;5047949;28;20744;-64
2022/06/14 07:19:46;;;;;;;0.85;0.80;;;;;;;;;;5046288;28;20246;-64
2022/06/14 07:22:16;;;;;;;0.75;0.73;;;;;;;;;;5051653;28;20260;-64
2022/06/14 07:24:49;;;;;;;0.70;0.70;;;;;;;;;;5051899;28;20298;-64
2022/06/14 07:27:19;;;;;;;1.00;0.85;;;;;;;;;;5051797;28;20231;-64
2022/06/14 07:29:50;;;;;;;1.13;0.60;;;;;;;;;;5051192;28;20273;-64
2022/06/14 07:32:19;;;;;;;1.65;0.85;;;;;;;;;;5050521;28;20281;-64
2022/06/14 07:34:46;;;;;;;1.05;0.80;;;;;;;;;;5051155;28;20207;-75
2022/06/14 07:37:17;;;;;;;1.27;1.00;;;;;;;;;;5051501;28;20277;-69
2022/06/14 07:39:46;;;;;;;2.35;0.80;;;;;;;;;;5051704;28;20207;-70
2022/06/14 07:42:16;;;;;;;3.30;0.85;;;;;;;;;;5051414;28;20208;-67
2022/06/14 07:44:48;;;;;;;0.70;0.70;;;;;;;;;;5051233;28;20884;-67
2022/06/14 07:47:18;;;;;;;1.08;0.80;;;;;;;;;;5051101;28;20281;-64
2022/06/14 07:49:51;;;;;;;0.70;0.70;;;;;;;;;;5051491;28;20257;-68
2022/06/14 07:52:20;;;;;;;0.88;0.75;;;;;;;;;;5046993;28;20216;-66
2022/06/14 07:54:49;;;;;;;0.88;0.80;;;;;;;;;;5031399;28;20208;-66
2022/06/14 07:57:18;;;;;;;0.90;0.90;;;;;;;;;;5041701;28;20261;-66
2022/06/14 07:59:48;;;;;;;2.97;1.05;;;;;;;;;;5049651;28;20212;-67
2022/06/14 08:02:20;;;;;;;2.47;0.95;;;;;;;;;;5049349;28;20796;-65
2022/06/14 08:04:49;;;;;;;1.05;0.85;;;;;;;;;;5049499;28;20685;-66
2022/06/14 08:07:17;;;;;;;1.58;1.00;;;;;;;;;;5050313;28;20228;-68
2022/06/14 08:09:47;;;;;;;1.80;0.85;;;;;;;;;;5050719;28;20204;-68
2022/06/14 08:12:17;;;;;;;2.03;1.00;;;;;;;;;;5045715;28;20253;-67
2022/06/14 08:14:51;;;;;;;1.15;1.00;;;;;;;;;;5049022;28;20212;-68
2022/06/14 08:17:21;;;;;;;1.00;1.00;;;;;;;;;;5048266;28;20249;-68
2022/06/14 08:19:51;;;;;;;1.20;1.20;;;;;;;;;;5030977;28;20278;-68
2022/06/14 08:22:20;;;;;;;1.35;0.85;;;;;;;;;;5037980;28;20226;-67
2022/06/14 08:24:49;;;;;;;1.70;0.88;;;;;;;;;;5047272;28;20212;-68
2022/06/14 08:27:19;;;;;;;1.13;1.05;;;;;;;;;;5049775;28;20235;-67
2022/06/14 08:29:49;;;;;;;0.82;0.82;;;;;;;;;;5045250;28;20219;-68
2022/06/14 08:32:18;;;;;;;1.05;0.80;;;;;;;;;;5043776;28;20212;-68
2022/06/14 08:34:48;;;;;;;0.90;0.90;;;;;;;;;;5048964;28;20212;-68
2022/06/14 08:37:17;;;;;;;1.30;0.88;;;;;;;;;;5043217;28;20634;-70
2022/06/14 08:39:46;;;;;;;1.10;1.00;;;;;;;;;;5049641;28;20630;-68
2022/06/14 08:42:16;;;;;;;0.80;0.80;;;;;;;;;;5050158;28;20206;-68
2022/06/14 08:44:47;;;;;;;0.88;0.88;;;;;;;;;;5037698;28;20939;-68
2022/06/14 08:47:32;;;;;;;1.15;1.00;;;;;;;;;;5048852;28;20255;-68
2022/06/14 08:50:07;;;;;;;1.33;0.73;;;;;;;;;;5039096;28;20242;-68
2022/06/14 08:52:43;;;;;;;1.25;0.88;;;;;;;;;;5044081;28;20231;-68
2022/06/14 08:55:20;;;;;;;0.65;0.65;;;;;;;;;;5037959;28;20321;-68
2022/06/14 08:58:08;;;;;;;1.17;0.73;;;;;;;;;;5050269;28;20214;-68
2022/06/14 09:00:43;;;;;;;1.42;0.85;;;;;;;;;;5047022;28;20203;-68
2022/06/14 09:03:26;;;;;;;1.67;0.90;;;;;;;;;;5034721;28;20211;-68
2022/06/14 09:06:11;;;;;;;2.85;0.88;;;;;;;;;;5044676;28;20204;-68
2022/06/14 09:08:59;;;;;;;0.95;0.70;;;;;;;;;;5031001;28;20212;-68
2022/06/14 09:11:47;;;;;;;0.93;0.80;;;;;;;;;;5049922;28;20614;-68
2022/06/14 09:14:23;;;;;;;1.02;1.02;;;;;;;;;;5049390;28;20219;-67
2022/06/14 09:17:04;;;;;;;1.27;0.93;;;;;;;;;;5047957;28;20195;-68
2022/06/14 09:19:40;;;;;;;1.05;0.80;;;;;;;;;;5046285;28;20208;-67
2022/06/14 09:22:09;;;;;;;1.48;1.00;;;;;;;;;;5030388;28;20223;-67
2022/06/14 09:24:49;;;;;;;4.32;1.10;;;;;;;;;;5028535;28;20215;-67
2022/06/14 09:27:20;;;;;;;2.05;0.90;;;;;;;;;;5029438;28;20238;-67
2022/06/14 09:30:02;;;;;;;0.70;0.70;;;;;;;;;;5037057;28;20753;-69
2022/06/14 09:35:45;;;;;;;1.55;0.70;;;;;;;;;;5045918;28;20588;-67
2022/06/14 09:38:19;;;;;;;1.50;1.00;;;;;;;;;;5049685;28;20739;-67
2022/06/14 09:40:51;;;;;;;1.40;1.13;;;;;;;;;;5045399;28;20784;-71
2022/06/14 09:43:29;;;;;;;4.20;0.95;;;;;;;;;;5048581;28;20207;-65
2022/06/14 09:46:07;;;;;;;1.65;0.80;;;;;;;;;;5047054;28;20666;-67
2022/06/14 09:48:44;;;;;;;0.70;0.70;;;;;;;;;;5041482;28;20211;-66
2022/06/14 09:51:26;;;;;;;1.58;0.60;;;;;;;;;;5043472;28;20216;-66
2022/06/14 09:54:19;;;;;;;0.82;0.82;;;;;;;;;;5008312;28;20231;-66
2022/06/14 09:56:55;;;;;;;1.77;0.60;;;;;;;;;;5048180;28;20285;-66
2022/06/14 09:59:41;;;;;;;1.13;0.68;;;;;;;;;;5037350;28;20204;-66
2022/06/14 10:02:14;;;;;;;0.88;0.80;;;;;;;;;;5045594;28;20666;-66
2022/06/14 10:04:49;;;;;;;0.95;0.68;;;;;;;;;;5048993;28;20215;-66
2022/06/14 10:07:32;;;;;;;1.63;0.65;;;;;;;;;;5044968;28;20277;-67
2022/06/14 10:10:04;;;;;;;1.30;0.88;;;;;;;;;;5034819;28;20613;-67
2022/06/14 10:12:38;;;;;;;0.80;0.80;;;;;;;;;;5029268;28;20235;-66
2022/06/14 10:15:09;;;;;;;0.70;0.70;;;;;;;;;;5028537;28;20204;-65
2022/06/14 10:17:54;;;;;;;1.42;0.80;;;;;;;;;;5048297;28;20558;-66
2022/06/14 10:20:28;;;;;;;1.23;0.63;;;;;;;;;;5037913;28;20496;-67
2022/06/14 10:22:58;;;;;;;0.60;0.60;;;;;;;;;;5040518;28;20208;-66
2022/06/14 10:25:30;;;;;;;1.80;0.70;;;;;;;;;;5048950;28;20665;-66
2022/06/14 10:28:14;;;;;;;1.85;0.90;;;;;;;;;;5036935;28;20729;-66
2022/06/14 10:30:52;;;;;;;2.83;0.60;;;;;;;;;;5042428;28;20247;-66
2022/06/14 10:33:36;;;;;;;1.08;0.70;;;;;;;;;;5042715;28;20310;-67
2022/06/14 10:36:15;;;;;;;0.93;0.70;;;;;;;;;;5048732;28;20265;-66
2022/06/14 10:38:51;;;;;;;1.05;0.75;;;;;;;;;;5048223;28;20290;-66
2022/06/14 10:41:28;;;;;;;0.90;0.90;;;;;;;;;;5046143;28;20210;-65
2022/06/14 10:43:57;;;;;;;1.05;0.75;;;;;;;;;;5045514;28;20262;-66
2022/06/14 10:46:25;;;;;;;0.60;0.60;;;;;;;;;;5046557;28;20203;-66
2022/06/14 10:49:02;;;;;;;1.33;0.73;;;;;;;;;;5047951;28;20208;-66
2022/06/14 10:51:53;;;;;;;0.93;0.60;;;;;;;;;;5038043;28;20231;-66
2022/06/14 10:54:24;;;;;;;0.70;0.70;;;;;;;;;;4988830;28;20699;-67
2022/06/14 10:57:03;;;;;;;0.68;0.68;;;;;;;;;;5046460;28;20259;-66
2022/06/14 10:59:57;;;;;;;0.95;0.95;;;;;;;;;;5045385;28;20258;-67
2022/06/14 11:02:28;;;;;;;0.70;0.70;;;;;;;;;;5047810;28;20214;-66
2022/06/14 11:04:59;;;;;;;0.75;0.70;;;;;;;;;;5047225;28;20207;-66
2022/06/14 11:07:49;;;;;;;0.82;0.80;;;;;;;;;;5047428;28;20230;-68
2022/06/14 11:10:26;;;;;;;0.52;0.52;;;;;;;;;;5028247;28;20212;-68
2022/06/14 11:12:58;;;;;;;1.50;0.50;;;;;;;;;;5047807;28;20277;-80
2022/06/14 11:15:32;;;;;;;0.65;0.50;;;;;;;;;;5048188;28;20255;-70
2022/06/14 11:18:13;;;;;;;0.75;0.60;;;;;;;;;;5047277;28;20670;-64
2022/06/14 11:20:49;;;;;;;1.65;0.75;;;;;;;;;;5034885;28;20203;-68
2022/06/14 11:23:20;;;;;;;1.50;0.80;;;;;;;;;;5044736;28;20266;-68
2022/06/14 11:25:51;;;;;;;0.82;0.60;;;;;;;;;;5046812;28;20226;-69
2022/06/14 11:28:24;;;;;;;2.47;0.93;;;;;;;;;;5046388;28;20285;-70
2022/06/14 11:30:54;;;;;;;2.90;2.22;;;;;;;;;;5046570;28;20273;-70
2022/06/14 11:33:26;;;;;;;0.68;0.68;;;;;;;;;;5046614;28;20215;-68
2022/06/14 11:36:00;;;;;;;0.60;0.50;;;;;;;;;;5046893;28;20269;-69
2022/06/14 11:38:34;;;;;;;1.08;0.60;;;;;;;;;;5046741;28;20229;-64
2022/06/14 11:41:02;;;;;;;0.50;0.50;;;;;;;;;;5045895;28;20242;-73
2022/06/14 11:43:39;;;;;;;1.45;0.50;;;;;;;;;;5044415;28;20811;-69
2022/06/14 11:46:12;;;;;;;0.55;0.50;;;;;;;;;;5046258;28;20281;-67
2022/06/14 11:48:43;;;;;;;3.40;0.60;;;;;;;;;;5035050;28;20228;-66
2022/06/14 11:51:16;;;;;;;0.70;0.60;;;;;;;;;;5041805;28;20335;-67
2022/06/14 11:53:48;;;;;;;0.60;0.60;;;;;;;;;;5037101;28;20232;-67
2022/06/14 11:56:21;;;;;;;0.65;0.60;;;;;;;;;;5035025;28;20240;-67
2022/06/14 11:59:04;;;;;;;0.60;0.60;;;;;;;;;;5032002;28;20904;-68
2022/06/14 12:01:36;;;;;;;1.67;0.68;;;;;;;;;;5029543;28;20208;-67
2022/06/14 12:04:12;;;;;;;1.20;0.85;;;;;;;;;;5046095;28;20208;-66
2022/06/14 12:06:45;;;;;;;2.25;0.73;;;;;;;;;;5048697;28;20322;-68
2022/06/14 12:09:21;;;;;;;0.60;0.60;;;;;;;;;;5051755;28;20203;-67
2022/06/14 12:11:51;;;;;;;0.80;0.80;;;;;;;;;;5049642;28;20207;-67
2022/06/14 12:14:39;;;;;;;0.40;0.40;;;;;;;;;;5044708;28;20208;-66
2022/06/14 12:17:11;;;;;;;0.50;0.50;;;;;;;;;;5031454;28;20208;-68
2022/06/14 12:19:39;;;;;;;0.80;0.80;;;;;;;;;;5035655;28;20295;-67
2022/06/14 12:27:41;;;;;;;0.80;0.80;;;;;;;;;;5031179;28;20705;-67
2022/06/14 12:30:10;;;;;;;1.90;0.68;;;;;;;;;;5030169;28;20311;-68
2022/06/14 12:32:39;;;;;;;0.57;0.57;;;;;;;;;;5031238;28;20278;-67
2022/06/14 12:35:07;;;;;;;0.60;0.60;;;;;;;;;;5030877;28;20222;-69
2022/06/14 12:37:38;;;;;;;1.55;0.80;;;;;;;;;;5031163;28;20250;-70
2022/06/14 12:40:08;;;;;;;0.70;0.70;;;;;;;;;;5031030;28;20238;-68
2022/06/14 12:42:38;;;;;;;1.75;0.82;;;;;;;;;;5042226;28;20212;-68
2022/06/14 12:45:09;;;;;;;1.35;0.60;;;;;;;;;;5050663;28;20212;-69
2022/06/14 12:47:43;;;;;;;1.38;0.60;;;;;;;;;;5049546;28;20228;-68
2022/06/14 12:50:13;;;;;;;0.80;0.80;;;;;;;;;;5050600;28;20214;-67
2022/06/14 12:52:44;;;;;;;1.95;0.80;;;;;;;;;;5046981;28;20223;-68
2022/06/14 12:55:16;;;;;;;1.13;0.73;;;;;;;;;;5049238;28;20318;-67
2022/06/14 12:57:56;;;;;;;0.80;0.80;;;;;;;;;;5050228;28;20211;-68
2022/06/14 13:00:28;;;;;;;1.35;1.35;;;;;;;;;;5049166;28;20634;-68
2022/06/14 13:03:00;;;;;;;0.98;0.70;;;;;;;;;;5030125;28;20212;-68
2022/06/14 13:05:29;;;;;;;1.75;0.90;;;;;;;;;;5034054;28;20314;-68
2022/06/14 13:08:04;;;;;;;1.98;0.90;;;;;;;;;;5048475;28;20570;-68
2022/06/14 13:10:39;;;;;;;0.90;0.90;;;;;;;;;;5037084;28;20211;-68
2022/06/14 13:13:24;;;;;;;1.92;0.90;;;;;;;;;;5047862;28;20241;-68
2022/06/14 13:15:56;;;;;;;2.97;0.80;;;;;;;;;;5049773;28;20214;-68
2022/06/14 13:18:33;;;;;;;1.92;0.90;;;;;;;;;;5049705;28;20207;-68
2022/06/14 13:21:22;;;;;;;2.38;0.60;;;;;;;;;;5050363;28;20227;-69
2022/06/14 13:23:54;;;;;;;0.82;0.82;;;;;;;;;;5038033;28;20208;-68
2022/06/14 13:26:28;;;;;;;0.70;0.70;;;;;;;;;;5050208;28;20249;-69
2022/06/14 13:29:02;;;;;;;0.57;0.57;;;;;;;;;;5049977;28;20231;-69
2022/06/14 13:31:38;;;;;;;1.58;0.93;;;;;;;;;;5049617;28;20837;-68
2022/06/14 13:34:14;;;;;;;0.88;0.88;;;;;;;;;;5050043;28;20208;-68
2022/06/14 13:36:48;;;;;;;1.42;0.60;;;;;;;;;;5050008;28;20681;-68
2022/06/14 13:39:27;;;;;;;0.85;0.85;;;;;;;;;;5049660;28;20215;-68
2022/06/14 13:42:01;;;;;;;0.68;0.68;;;;;;;;;;5049619;28;20269;-68
2022/06/14 13:44:31;;;;;;;1.05;0.90;;;;;;;;;;5049611;28;20296;-67
2022/06/14 13:47:01;;;;;;;0.85;0.85;;;;;;;;;;5049658;28;20207;-69
2022/06/14 13:49:32;;;;;;;1.58;1.00;;;;;;;;;;5049671;28;20231;-69
2022/06/14 13:52:02;;;;;;;0.82;0.80;;;;;;;;;;5049205;28;20646;-68
2022/06/14 13:54:31;;;;;;;0.73;0.73;;;;;;;;;;5049319;28;20783;-69
2022/06/14 13:57:03;;;;;;;0.77;0.77;;;;;;;;;;5049535;28;20327;-68
2022/06/14 13:59:33;;;;;;;2.13;1.00;;;;;;;;;;5049310;28;20245;-68
2022/06/14 14:02:04;;;;;;;0.82;0.82;;;;;;;;;;5049179;28;20212;-68
2022/06/14 14:04:36;;;;;;;0.70;0.70;;;;;;;;;;5048618;28;20274;-69
2022/06/14 14:07:09;;;;;;;3.15;0.77;;;;;;;;;;5049490;28;20284;-69
2022/06/14 14:09:41;;;;;;;1.17;1.17;;;;;;;;;;5049084;28;20309;-68
2022/06/14 14:12:13;;;;;;;0.80;0.80;;;;;;;;;;5049653;28;20373;-68
2022/06/14 14:14:49;;;;;;;0.70;0.70;;;;;;;;;;5048500;28;20253;-68
2022/06/14 14:17:21;;;;;;;0.63;0.63;;;;;;;;;;5048739;28;20261;-69
2022/06/14 14:19:54;;;;;;;0.70;0.70;;;;;;;;;;5046069;28;20200;-69
2022/06/14 14:22:23;;;;;;;1.38;0.82;;;;;;;;;;5047982;28;20220;-68
2022/06/14 14:24:53;;;;;;;0.65;0.65;;;;;;;;;;5045701;28;20590;-68
2022/06/14 14:27:26;;;;;;;0.80;0.80;;;;;;;;;;5048299;28;20294;-68
2022/06/14 14:29:55;;;;;;;0.65;0.65;;;;;;;;;;5048107;28;20269;-68
2022/06/14 14:32:26;;;;;;;0.98;0.98;;;;;;;;;;5048627;28;20211;-68
2022/06/14 14:34:58;;;;;;;1.95;0.80;;;;;;;;;;5048148;28;20212;-68
2022/06/14 14:37:29;;;;;;;0.60;0.60;;;;;;;;;;5047813;28;20684;-69
2022/06/14 14:40:14;;;;;;;0.93;0.93;;;;;;;;;;5049144;28;20208;-68
2022/06/14 14:42:44;;;;;;;0.90;0.90;;;;;;;;;;5048261;28;20599;-68
2022/06/14 14:45:13;;;;;;;2.72;0.85;;;;;;;;;;5048613;28;20215;-68
2022/06/14 14:47:44;;;;;;;0.68;0.68;;;;;;;;;;5048731;28;20265;-68
2022/06/14 14:50:18;;;;;;;0.65;0.60;;;;;;;;;;5047588;28;20208;-68
2022/06/14 14:52:53;;;;;;;0.70;0.70;;;;;;;;;;5028638;28;20285;-63
2022/06/14 14:55:23;;;;;;;0.88;0.88;;;;;;;;;;5047318;28;20237;-63
2022/06/14 14:57:53;;;;;;;0.70;0.70;;;;;;;;;;5046013;28;20199;-66
2022/06/14 15:00:22;;;;;;;0.65;0.65;;;;;;;;;;5047694;28;20203;-66
2022/06/14 15:05:46;;;;;;;0.60;0.60;;;;;;;;;;5044719;28;20203;-67
2022/06/14 15:08:16;;;;;;;0.57;0.57;;;;;;;;;;5041518;28;20251;-67
2022/06/14 15:10:53;;;;;;;0.70;0.70;;;;;;;;;;5039132;28;20203;-66
2022/06/14 15:13:31;;;;;;;0.75;0.75;;;;;;;;;;5046980;28;20207;-67
2022/06/14 15:15:59;;;;;;;0.60;0.52;;;;;;;;;;5047446;28;20207;-67
2022/06/14 15:21:19;;;;;;;0.70;0.70;;;;;;;;;;5046026;28;20215;-66
2022/06/14 15:23:48;;;;;;;1.05;0.80;;;;;;;;;;5046075;28;20211;-66
2022/06/14 15:26:16;;;;;;;1.00;1.00;;;;;;;;;;5046992;28;20318;-66
2022/06/14 15:28:45;;;;;;;0.70;0.70;;;;;;;;;;5047095;28;20280;-66
2022/06/14 15:31:38;;;;;;;1.58;0.70;;;;;;;;;;5046774;28;20370;-66